ZHB YPJT-YPPH
Flight info
| Callsign | ZHB |
|---|---|
| Flight time | 0h -10m |
| Altitude | 1500 |
| Route | FREM DCT CTE DCT PCTY |
| Aircraft | C172/L-SFG/C |
Departure
| Time | 2026-04-26 05:13 |
|---|---|
| Airport | Perth Jandakot Airport (YPJT) |
Arrival
| Time | 2026-04-26 05:03 |
|---|---|
| Airport | Perth International Airport (YPPH) |
| Time | Latitude | Longitude | Altitude | Speed | Heading |
|---|---|---|---|---|---|
| 2026-04-26 05:03 | -32.09218 | 115.88246 | 94 ft | 0 kts | 223° |
| 2026-04-26 05:04 | -32.09261 | 115.88268 | 94 ft | 12 kts | 131° |
| 2026-04-26 05:04 | -32.09282 | 115.88296 | 94 ft | 13 kts | 131° |
| 2026-04-26 05:04 | -32.09310 | 115.88333 | 93 ft | 10 kts | 139° |
| 2026-04-26 05:04 | -32.09342 | 115.88304 | 93 ft | 9 kts | 250° |
| 2026-04-26 05:05 | -32.09387 | 115.88239 | 95 ft | 8 kts | 144° |
| 2026-04-26 05:05 | -32.09391 | 115.88242 | 94 ft | 0 kts | 135° |
| 2026-04-26 05:10 | -32.09396 | 115.88246 | 94 ft | 5 kts | 171° |
| 2026-04-26 05:10 | -32.09432 | 115.88197 | 95 ft | 9 kts | 233° |
| 2026-04-26 05:10 | -32.09482 | 115.88114 | 94 ft | 15 kts | 236° |
| 2026-04-26 05:10 | -32.09555 | 115.87994 | 96 ft | 21 kts | 234° |
| 2026-04-26 05:11 | -32.09647 | 115.87846 | 95 ft | 24 kts | 235° |
| 2026-04-26 05:11 | -32.09742 | 115.87688 | 95 ft | 22 kts | 233° |
| 2026-04-26 05:11 | -32.09822 | 115.87556 | 95 ft | 18 kts | 236° |
| 2026-04-26 05:11 | -32.09890 | 115.87444 | 95 ft | 15 kts | 243° |
| 2026-04-26 05:12 | -32.09965 | 115.87449 | 95 ft | 10 kts | 146° |
| 2026-04-26 05:12 | -32.09978 | 115.87494 | 94 ft | 4 kts | 62° |
| 2026-04-26 05:12 | -32.09889 | 115.87640 | 95 ft | 47 kts | 53° |
| 2026-04-26 05:12 | -32.09619 | 115.88081 | 138 ft | 79 kts | 53° |
| 2026-04-26 05:13 | -32.09269 | 115.88614 | 331 ft | 83 kts | 51° |
| 2026-04-26 05:13 | -32.08879 | 115.89111 | 567 ft | 86 kts | 47° |
| 2026-04-26 05:13 | -32.08308 | 115.89353 | 767 ft | 95 kts | 351° |
| 2026-04-26 05:13 | -32.07751 | 115.88959 | 1010 ft | 97 kts | 322° |
| 2026-04-26 05:14 | -32.07201 | 115.88432 | 1069 ft | 99 kts | 320° |
| 2026-04-26 05:14 | -32.06920 | 115.87704 | 1058 ft | 108 kts | 275° |
| 2026-04-26 05:14 | -32.06854 | 115.86837 | 1120 ft | 103 kts | 273° |
| 2026-04-26 05:14 | -32.06822 | 115.86000 | 1157 ft | 101 kts | 275° |
| 2026-04-26 05:15 | -32.06657 | 115.85183 | 1155 ft | 102 kts | 289° |
| 2026-04-26 05:15 | -32.06403 | 115.84351 | 1171 ft | 115 kts | 293° |
| 2026-04-26 05:15 | -32.06121 | 115.83443 | 1293 ft | 119 kts | 289° |
| 2026-04-26 05:15 | -32.05873 | 115.82533 | 1469 ft | 118 kts | 289° |
| 2026-04-26 05:16 | -32.05616 | 115.81545 | 1481 ft | 132 kts | 288° |
| 2026-04-26 05:16 | -32.05346 | 115.80525 | 1481 ft | 129 kts | 292° |
| 2026-04-26 05:16 | -32.05042 | 115.79542 | 1467 ft | 126 kts | 287° |
| 2026-04-26 05:16 | -32.04914 | 115.78542 | 1472 ft | 122 kts | 265° |
| 2026-04-26 05:17 | -32.05065 | 115.77564 | 1462 ft | 123 kts | 264° |
| 2026-04-26 05:17 | -32.04745 | 115.76692 | 1447 ft | 114 kts | 321° |
| 2026-04-26 05:17 | -32.04045 | 115.76366 | 1470 ft | 107 kts | 343° |
| 2026-04-26 05:17 | -32.03314 | 115.76112 | 1456 ft | 111 kts | 345° |
| 2026-04-26 05:18 | -32.02579 | 115.75866 | 1466 ft | 109 kts | 345° |
| 2026-04-26 05:18 | -32.01841 | 115.75624 | 1464 ft | 112 kts | 344° |
| 2026-04-26 05:18 | -32.01084 | 115.75407 | 1462 ft | 114 kts | 352° |
| 2026-04-26 05:18 | -32.00300 | 115.75255 | 1466 ft | 115 kts | 352° |
| 2026-04-26 05:19 | -31.99521 | 115.75218 | 1462 ft | 109 kts | 28° |
| 2026-04-26 05:19 | -31.99081 | 115.75876 | 1477 ft | 104 kts | 68° |
| 2026-04-26 05:19 | -31.98750 | 115.76650 | 1469 ft | 106 kts | 67° |
| 2026-04-26 05:19 | -31.98429 | 115.77422 | 1473 ft | 105 kts | 66° |
| 2026-04-26 05:20 | -31.98110 | 115.78193 | 1474 ft | 107 kts | 66° |
| 2026-04-26 05:20 | -31.97789 | 115.78975 | 1470 ft | 105 kts | 66° |
| 2026-04-26 05:20 | -31.97468 | 115.79748 | 1468 ft | 105 kts | 66° |
| 2026-04-26 05:20 | -31.97145 | 115.80520 | 1471 ft | 105 kts | 67° |
| 2026-04-26 05:21 | -31.96814 | 115.81285 | 1475 ft | 106 kts | 65° |
| 2026-04-26 05:21 | -31.96483 | 115.82071 | 1476 ft | 108 kts | 66° |
| 2026-04-26 05:21 | -31.96148 | 115.82847 | 1463 ft | 105 kts | 65° |
| 2026-04-26 05:21 | -31.95829 | 115.83600 | 1466 ft | 102 kts | 66° |
| 2026-04-26 05:22 | -31.95502 | 115.84343 | 1474 ft | 102 kts | 65° |
| 2026-04-26 05:22 | -31.95176 | 115.85091 | 1500 ft | 105 kts | 65° |
| 2026-04-26 05:22 | -31.95017 | 115.85911 | 1502 ft | 107 kts | 104° |
| 2026-04-26 05:22 | -31.95236 | 115.86746 | 1510 ft | 107 kts | 106° |
| 2026-04-26 05:23 | -31.95457 | 115.87591 | 1510 ft | 108 kts | 109° |
| 2026-04-26 05:23 | -31.95711 | 115.88421 | 1498 ft | 107 kts | 109° |
| 2026-04-26 05:23 | -31.95963 | 115.89227 | 1513 ft | 103 kts | 109° |
| 2026-04-26 05:23 | -31.96210 | 115.90021 | 1508 ft | 107 kts | 109° |
| 2026-04-26 05:24 | -31.96465 | 115.90844 | 1509 ft | 107 kts | 109° |
| 2026-04-26 05:24 | -31.96722 | 115.91668 | 1507 ft | 107 kts | 109° |
| 2026-04-26 05:24 | -31.96987 | 115.92479 | 1434 ft | 107 kts | 109° |
| 2026-04-26 05:24 | -31.97214 | 115.93296 | 1194 ft | 100 kts | 105° |
| 2026-04-26 05:25 | -31.97362 | 115.93969 | 987 ft | 72 kts | 102° |
| 2026-04-26 05:25 | -31.97432 | 115.94552 | 645 ft | 70 kts | 92° |
| 2026-04-26 05:25 | -31.97348 | 115.95078 | 481 ft | 65 kts | 66° |
| 2026-04-26 05:25 | -31.97063 | 115.95463 | 391 ft | 60 kts | 42° |
| 2026-04-26 05:26 | -31.96660 | 115.95711 | 251 ft | 66 kts | 18° |
| 2026-04-26 05:26 | -31.96231 | 115.95850 | 144 ft | 63 kts | 13° |
| 2026-04-26 05:26 | -31.95799 | 115.95986 | 72 ft | 64 kts | 14° |
| 2026-04-26 05:26 | -31.95397 | 115.96104 | 52 ft | 48 kts | 16° |
| 2026-04-26 05:27 | -31.95153 | 115.96181 | 53 ft | 25 kts | 12° |
| 2026-04-26 05:27 | -31.95090 | 115.96260 | 51 ft | 11 kts | 82° |
| 2026-04-26 05:27 | -31.95092 | 115.96319 | 50 ft | 6 kts | 115° |
| 2026-04-26 05:28 | -31.95105 | 115.96327 | 50 ft | 4 kts | 184° |
| 2026-04-26 05:28 | -31.95117 | 115.96311 | 50 ft | 1 kts | 276° |
| 2026-04-26 05:29 | -31.95116 | 115.96310 | 50 ft | 0 kts | 279° |